createdAt,value
2018-07-02T00:00:46.719Z,23.78
2018-07-02T00:03:12.689Z,23.81
2018-07-02T00:05:38.653Z,23.87
2018-07-02T00:08:04.639Z,23.85
2018-07-02T00:10:30.616Z,23.93
2018-07-02T00:12:56.609Z,23.85
2018-07-02T00:15:22.593Z,23.83
2018-07-02T00:17:48.563Z,23.84
2018-07-02T00:20:14.545Z,23.83
2018-07-02T00:22:40.538Z,23.78
2018-07-02T00:25:06.604Z,23.74
2018-07-02T00:27:32.635Z,23.75
2018-07-02T00:29:58.593Z,23.75
2018-07-02T00:32:24.559Z,23.74
2018-07-02T00:34:50.527Z,23.73
2018-07-02T00:37:16.516Z,23.68
2018-07-02T00:39:42.515Z,23.69
2018-07-02T00:42:08.487Z,23.73
2018-07-02T00:44:34.476Z,23.65
2018-07-02T00:47:00.459Z,23.68
2018-07-02T00:49:26.430Z,23.68
2018-07-02T00:51:52.426Z,23.74
2018-07-02T00:54:18.410Z,23.87
2018-07-02T00:56:44.386Z,23.85
2018-07-02T00:59:10.364Z,23.81
2018-07-02T01:01:36.327Z,23.74
2018-07-02T01:04:02.310Z,23.81
2018-07-02T01:06:28.275Z,23.82
2018-07-02T01:08:54.254Z,23.75
2018-07-02T01:11:20.231Z,23.67
2018-07-02T01:13:46.208Z,23.70
2018-07-02T01:16:12.180Z,23.70
2018-07-02T01:18:38.157Z,23.67
2018-07-02T01:21:04.127Z,23.56
2018-07-02T01:23:30.043Z,23.61
2018-07-02T01:25:56.034Z,23.58
2018-07-02T01:28:22.044Z,23.57
2018-07-02T01:30:48.004Z,23.50
2018-07-02T01:33:14.029Z,23.61
2018-07-02T01:35:40.009Z,23.62
2018-07-02T01:38:06.060Z,23.66
2018-07-02T01:40:32.087Z,23.70
2018-07-02T01:42:58.080Z,23.71
2018-07-02T01:45:24.067Z,23.79
2018-07-02T01:47:50.035Z,23.72
2018-07-02T01:50:16.032Z,23.71
2018-07-02T01:52:42.819Z,23.72
2018-07-02T01:55:08.818Z,23.66
2018-07-02T01:57:34.807Z,23.59
2018-07-02T02:00:00.797Z,23.62
2018-07-02T02:02:26.774Z,23.56
2018-07-02T02:04:52.767Z,23.61
2018-07-02T02:07:18.816Z,23.63
2018-07-02T02:09:44.823Z,23.52
2018-07-02T02:12:10.886Z,23.52
2018-07-02T02:14:36.852Z,23.49
2018-07-02T02:17:02.935Z,23.58
2018-07-02T02:19:28.897Z,23.51
2018-07-02T02:21:54.867Z,23.47
2018-07-02T02:24:20.841Z,23.48
2018-07-02T02:26:46.838Z,23.60
2018-07-02T02:29:12.811Z,23.62
2018-07-02T02:31:38.747Z,23.54
2018-07-02T02:34:04.723Z,23.60
2018-07-02T02:36:30.702Z,23.64
2018-07-02T02:38:56.684Z,23.64
2018-07-02T02:41:22.686Z,23.63
2018-07-02T02:43:48.647Z,23.53
2018-07-02T02:46:14.619Z,23.48
2018-07-02T02:48:40.590Z,23.54
2018-07-02T02:51:06.597Z,23.56
2018-07-02T02:53:32.570Z,23.51
2018-07-02T02:55:58.594Z,23.54
2018-07-02T02:58:24.568Z,23.47
2018-07-02T03:00:50.504Z,23.42
2018-07-02T03:03:16.632Z,23.45
2018-07-02T03:05:42.680Z,23.47
2018-07-02T03:08:08.664Z,23.46
2018-07-02T03:10:34.656Z,23.39
2018-07-02T03:13:00.620Z,23.41
2018-07-02T03:15:26.593Z,23.40
2018-07-02T03:17:52.640Z,23.47
2018-07-02T03:20:18.669Z,23.43
2018-07-02T03:22:44.596Z,23.41
2018-07-02T03:25:10.564Z,23.39
2018-07-02T03:27:36.551Z,23.43
2018-07-02T03:30:02.561Z,23.37
2018-07-02T03:32:28.547Z,23.37
2018-07-02T03:34:54.559Z,23.27
2018-07-02T03:37:20.524Z,23.28
2018-07-02T03:39:46.512Z,23.32
2018-07-02T03:42:12.583Z,23.31
2018-07-02T03:44:38.580Z,23.33
2018-07-02T03:47:04.567Z,23.41
2018-07-02T03:49:30.519Z,23.25
2018-07-02T03:51:56.535Z,23.29
2018-07-02T03:54:22.479Z,23.30
2018-07-02T03:56:48.456Z,23.31
2018-07-02T03:59:14.423Z,23.29
2018-07-02T04:01:40.392Z,23.28
2018-07-02T04:04:06.342Z,23.28
2018-07-02T04:06:32.381Z,23.26
2018-07-02T04:08:58.359Z,23.21
2018-07-02T04:11:24.350Z,23.28
2018-07-02T04:13:50.332Z,23.20
2018-07-02T04:16:16.319Z,23.21
2018-07-02T04:18:42.330Z,23.19
2018-07-02T04:21:08.304Z,23.27
2018-07-02T04:23:34.385Z,23.30
2018-07-02T04:26:00.434Z,23.27
2018-07-02T04:28:26.363Z,23.18
2018-07-02T04:30:52.343Z,23.24
2018-07-02T04:33:18.346Z,23.26
2018-07-02T04:35:44.331Z,23.18
2018-07-02T04:38:10.329Z,23.23
2018-07-02T04:40:36.308Z,23.15
2018-07-02T04:43:02.309Z,23.16
2018-07-02T04:45:28.374Z,23.17
2018-07-02T04:47:54.372Z,23.25
2018-07-02T04:50:20.379Z,23.20
2018-07-02T04:52:46.369Z,23.22
2018-07-02T04:55:12.364Z,23.33
2018-07-02T04:57:38.361Z,23.29
2018-07-02T05:00:04.342Z,23.20
2018-07-02T05:02:30.330Z,23.26
2018-07-02T05:04:56.298Z,23.20
2018-07-02T05:07:22.350Z,23.13
2018-07-02T05:09:48.324Z,23.18
2018-07-02T05:12:14.421Z,23.16
2018-07-02T05:14:40.374Z,23.18
2018-07-02T05:17:06.345Z,23.20
2018-07-02T05:19:32.318Z,23.22
2018-07-02T05:21:58.288Z,23.20
2018-07-02T05:24:24.294Z,23.18
2018-07-02T05:26:50.288Z,23.15
2018-07-02T05:29:16.287Z,23.20
2018-07-02T05:31:42.265Z,23.16
2018-07-02T05:34:08.245Z,23.12
2018-07-02T05:36:34.280Z,23.09
2018-07-02T05:39:00.271Z,23.21
2018-07-02T05:41:26.247Z,23.22
2018-07-02T05:43:52.215Z,23.18
2018-07-02T05:46:18.527Z,23.27
2018-07-02T05:48:44.504Z,23.29
2018-07-02T05:51:10.494Z,23.27
2018-07-02T05:53:36.471Z,23.22
2018-07-02T05:56:02.451Z,23.30
2018-07-02T05:58:28.437Z,23.28
2018-07-02T06:00:54.516Z,23.32
2018-07-02T06:03:20.486Z,23.29
2018-07-02T06:05:46.531Z,23.32
2018-07-02T06:08:12.565Z,23.31
2018-07-02T06:10:38.685Z,23.28
2018-07-02T06:13:04.668Z,23.28
2018-07-02T06:15:30.664Z,23.34
2018-07-02T06:17:56.680Z,23.39
2018-07-02T06:20:22.685Z,23.37
2018-07-02T06:22:48.652Z,23.38
2018-07-02T06:25:15.437Z,23.34
2018-07-02T06:27:41.483Z,23.38
2018-07-02T06:30:07.482Z,23.44
2018-07-02T06:32:33.457Z,23.43
2018-07-02T06:34:59.419Z,23.41
2018-07-02T06:37:25.424Z,23.46
2018-07-02T06:39:51.395Z,23.51
2018-07-02T06:42:17.360Z,23.54
2018-07-02T06:44:43.337Z,23.56
2018-07-02T06:47:09.311Z,23.59
2018-07-02T06:49:35.340Z,23.56
2018-07-02T06:52:01.376Z,23.67
2018-07-02T06:54:27.414Z,23.68
2018-07-02T06:56:53.394Z,23.69
2018-07-02T06:59:19.361Z,23.70
2018-07-02T07:01:45.325Z,23.65
2018-07-02T07:04:11.290Z,23.73
2018-07-02T07:06:37.259Z,23.73
2018-07-02T07:09:03.276Z,23.73
2018-07-02T07:11:29.253Z,23.71
2018-07-02T07:13:55.232Z,23.71
2018-07-02T07:16:21.204Z,23.76
2018-07-02T07:18:47.328Z,23.78
2018-07-02T07:21:13.324Z,23.80
2018-07-02T07:23:39.283Z,23.90
2018-07-02T07:26:05.252Z,23.85
2018-07-02T07:28:31.397Z,23.82
2018-07-02T07:30:57.405Z,23.90
2018-07-02T07:33:23.377Z,23.85
2018-07-02T07:35:49.375Z,23.94
2018-07-02T07:38:15.356Z,23.90
2018-07-02T07:40:41.352Z,24.01
2018-07-02T07:43:07.343Z,23.92
2018-07-02T07:45:33.364Z,23.97
2018-07-02T07:47:59.337Z,23.95
2018-07-02T07:50:25.392Z,23.94
2018-07-02T07:52:51.366Z,23.99
2018-07-02T07:55:17.324Z,23.97
2018-07-02T07:57:43.347Z,23.95
2018-07-02T08:00:09.338Z,24.08
2018-07-02T08:02:35.334Z,24.03
2018-07-02T08:05:01.422Z,24.05
2018-07-02T08:07:27.482Z,24.04
2018-07-02T08:09:53.499Z,24.02
2018-07-02T08:12:19.504Z,23.95
2018-07-02T08:14:45.466Z,24.15
2018-07-02T08:17:11.446Z,23.95
2018-07-02T08:19:37.410Z,23.93
2018-07-02T08:22:03.454Z,23.92
2018-07-02T08:24:29.426Z,24.01
2018-07-02T08:26:55.408Z,24.00
2018-07-02T08:29:21.427Z,23.99
2018-07-02T08:31:47.410Z,23.99
2018-07-02T08:34:13.380Z,24.02
2018-07-02T08:36:39.544Z,24.13
2018-07-02T08:39:05.649Z,24.06
2018-07-02T08:41:31.807Z,24.12
2018-07-02T08:43:57.779Z,24.02
2018-07-02T08:46:23.770Z,24.14
2018-07-02T08:48:49.755Z,23.98
2018-07-02T08:51:15.728Z,23.97
2018-07-02T08:53:41.736Z,24.20
2018-07-02T08:56:07.687Z,24.19
2018-07-02T08:58:33.659Z,24.09
2018-07-02T09:00:59.639Z,24.10
2018-07-02T09:03:25.607Z,24.06
2018-07-02T09:05:51.552Z,24.16
2018-07-02T09:08:17.529Z,24.08
2018-07-02T09:10:43.525Z,24.16
2018-07-02T09:13:09.473Z,24.16
2018-07-02T09:15:35.448Z,24.04
2018-07-02T09:18:01.404Z,24.08
2018-07-02T09:20:27.379Z,24.27
2018-07-02T09:22:53.356Z,24.08
2018-07-02T09:25:19.326Z,24.13
2018-07-02T09:27:45.300Z,24.26
2018-07-02T09:30:11.271Z,24.06
2018-07-02T09:32:37.268Z,24.11
2018-07-02T09:35:03.234Z,24.31
2018-07-02T09:37:29.214Z,24.24
2018-07-02T09:39:55.208Z,24.18
2018-07-02T09:42:21.193Z,24.18
2018-07-02T09:44:47.172Z,24.07
2018-07-02T09:47:13.143Z,24.12
2018-07-02T09:49:39.104Z,24.22
2018-07-02T09:52:05.176Z,24.18
2018-07-02T09:54:31.138Z,24.09
2018-07-02T09:56:57.116Z,24.06
2018-07-02T09:59:23.181Z,24.11
2018-07-02T10:01:49.169Z,24.14
2018-07-02T10:04:15.121Z,24.11
2018-07-02T10:06:41.184Z,24.19
2018-07-02T10:09:07.106Z,24.23
2018-07-02T10:11:33.100Z,24.24
2018-07-02T10:13:59.022Z,24.22
2018-07-02T10:16:24.980Z,24.17
2018-07-02T10:18:50.950Z,24.11
2018-07-02T10:21:16.964Z,24.12
2018-07-02T10:23:43.045Z,24.20
2018-07-02T10:26:08.936Z,24.14
2018-07-02T10:28:34.915Z,24.33
2018-07-02T10:31:00.926Z,24.15
2018-07-02T10:33:26.835Z,24.26
2018-07-02T10:35:52.809Z,24.23
2018-07-02T10:38:18.759Z,24.19
2018-07-02T10:40:44.731Z,24.16
2018-07-02T10:43:10.690Z,24.12
2018-07-02T10:45:36.667Z,24.08
2018-07-02T10:48:02.611Z,24.09
2018-07-02T10:50:28.645Z,24.15
2018-07-02T10:52:54.551Z,24.20
2018-07-02T10:55:20.518Z,24.10
2018-07-02T10:57:46.552Z,24.20
2018-07-02T11:00:12.552Z,24.15
2018-07-02T11:02:38.556Z,24.21
2018-07-02T11:05:04.524Z,24.16
2018-07-02T11:07:30.506Z,24.30
2018-07-02T11:09:56.567Z,24.23
2018-07-02T11:12:22.560Z,24.21
2018-07-02T11:14:48.655Z,24.15
2018-07-02T11:17:14.652Z,24.21
2018-07-02T11:19:40.612Z,24.19
2018-07-02T11:22:06.584Z,24.16
2018-07-02T11:24:32.541Z,24.20
2018-07-02T11:26:58.538Z,24.35
2018-07-02T11:29:24.509Z,24.29
2018-07-02T11:31:50.496Z,24.12
2018-07-02T11:34:16.473Z,24.16
2018-07-02T11:36:42.431Z,24.24
2018-07-02T11:39:08.407Z,24.26
2018-07-02T11:41:34.443Z,24.20
2018-07-02T11:44:00.430Z,24.21
2018-07-02T11:46:26.394Z,24.20
2018-07-02T11:48:52.374Z,24.15
2018-07-02T11:51:18.361Z,24.20
2018-07-02T11:53:44.399Z,24.34
2018-07-02T11:56:10.362Z,24.28
2018-07-02T11:58:36.326Z,24.20
2018-07-02T12:01:02.417Z,24.21
2018-07-02T12:03:28.398Z,24.21
2018-07-02T12:05:54.390Z,24.21
2018-07-02T12:08:20.356Z,24.25
2018-07-02T12:10:46.311Z,24.24
2018-07-02T12:13:12.266Z,24.31
2018-07-02T12:15:38.238Z,24.24
2018-07-02T12:18:04.269Z,24.27
2018-07-02T12:20:30.219Z,24.23
2018-07-02T12:22:56.171Z,24.31
2018-07-02T12:25:22.126Z,24.26
2018-07-02T12:27:48.083Z,24.38
2018-07-02T12:30:14.087Z,24.35
2018-07-02T12:32:40.060Z,24.30
2018-07-02T12:35:06.021Z,24.36
2018-07-02T12:37:31.975Z,24.32
2018-07-02T12:39:57.949Z,24.35
2018-07-02T12:42:23.957Z,24.24
2018-07-02T12:44:49.946Z,24.26
2018-07-02T12:47:15.923Z,24.30
2018-07-02T12:49:41.902Z,24.24
2018-07-02T12:52:07.883Z,24.32
2018-07-02T12:54:33.849Z,24.42
2018-07-02T12:56:59.832Z,24.46
2018-07-02T12:59:25.841Z,24.36
2018-07-02T13:01:51.919Z,24.28
2018-07-02T13:04:17.961Z,24.27
2018-07-02T13:06:43.942Z,24.33
2018-07-02T13:09:09.931Z,24.22
2018-07-02T13:11:35.916Z,24.34
2018-07-02T13:14:01.897Z,24.27
2018-07-02T13:16:27.971Z,24.18
2018-07-02T13:18:54.022Z,24.16
2018-07-02T13:21:20.059Z,24.27
2018-07-02T13:23:45.999Z,24.20
2018-07-02T13:26:12.074Z,24.22
2018-07-02T13:28:38.050Z,24.37
2018-07-02T13:31:04.044Z,24.32
2018-07-02T13:33:30.035Z,24.27
2018-07-02T13:35:56.024Z,24.21
2018-07-02T13:38:22.009Z,24.29
2018-07-02T13:40:47.991Z,24.24
2018-07-02T13:43:14.096Z,24.26
2018-07-02T13:45:40.069Z,24.21
2018-07-02T13:48:06.115Z,24.26
2018-07-02T13:50:32.099Z,24.26
2018-07-02T13:52:58.075Z,24.29
2018-07-02T13:55:24.071Z,24.29
2018-07-02T13:57:49.996Z,24.30
2018-07-02T14:00:16.050Z,24.33
2018-07-02T14:02:42.022Z,24.36
2018-07-02T14:05:07.970Z,24.45
2018-07-02T14:07:33.967Z,24.31
2018-07-02T14:09:59.957Z,24.34
2018-07-02T14:12:26.019Z,24.33
2018-07-02T14:14:52.044Z,24.32
2018-07-02T14:17:18.016Z,24.29
2018-07-02T14:19:43.983Z,24.31
2018-07-02T14:22:09.973Z,24.28
2018-07-02T14:24:35.946Z,24.39
2018-07-02T14:27:01.967Z,24.32
2018-07-02T14:29:27.945Z,24.36
2018-07-02T14:31:53.944Z,24.30
2018-07-02T14:34:19.913Z,24.33
2018-07-02T14:36:45.876Z,24.46
2018-07-02T14:39:11.903Z,24.38
2018-07-02T14:41:37.858Z,24.39
2018-07-02T14:44:03.823Z,24.34
2018-07-02T14:46:29.801Z,24.39
2018-07-02T14:48:55.776Z,24.40
2018-07-02T14:51:21.741Z,24.41
2018-07-02T14:53:47.720Z,24.32
2018-07-02T14:56:13.689Z,24.33
2018-07-02T14:58:39.756Z,24.38
2018-07-02T15:01:05.735Z,24.35
2018-07-02T15:03:31.717Z,24.34
2018-07-02T15:05:57.694Z,24.34
2018-07-02T15:08:23.653Z,24.31
2018-07-02T15:10:49.631Z,24.33
2018-07-02T15:13:15.604Z,24.33
2018-07-02T15:15:41.587Z,24.38
2018-07-02T15:18:07.594Z,24.40
2018-07-02T15:20:33.529Z,24.54
2018-07-02T15:22:59.560Z,24.51
2018-07-02T15:25:25.513Z,24.38
2018-07-02T15:27:51.507Z,24.38
2018-07-02T15:30:17.468Z,24.35
2018-07-02T15:32:43.569Z,24.48
2018-07-02T15:35:09.553Z,24.50
2018-07-02T15:37:35.567Z,24.57
2018-07-02T15:40:01.528Z,24.42
2018-07-02T15:42:27.515Z,24.34
2018-07-02T15:44:53.524Z,24.44
2018-07-02T15:47:19.642Z,24.42
2018-07-02T15:49:45.624Z,24.39
2018-07-02T15:52:11.593Z,24.35
2018-07-02T15:54:37.572Z,24.37
2018-07-02T15:57:03.543Z,24.35
2018-07-02T15:59:29.528Z,24.43
2018-07-02T16:01:55.490Z,24.42
2018-07-02T16:04:21.504Z,24.48
2018-07-02T16:06:47.456Z,24.38
2018-07-02T16:09:13.533Z,24.38
2018-07-02T16:11:39.527Z,24.41
2018-07-02T16:14:05.519Z,24.43
2018-07-02T16:16:31.504Z,24.43
2018-07-02T16:18:57.477Z,24.46
2018-07-02T16:21:23.453Z,24.56
2018-07-02T16:23:49.430Z,24.51
2018-07-02T16:26:15.411Z,24.39
2018-07-02T16:28:41.401Z,24.41
2018-07-02T16:31:07.389Z,24.43
2018-07-02T16:33:33.370Z,24.40
2018-07-02T16:35:59.372Z,24.40
2018-07-02T16:38:25.332Z,24.39
2018-07-02T16:40:51.308Z,24.49
2018-07-02T16:43:17.267Z,24.44
2018-07-02T16:45:43.261Z,24.44
2018-07-02T16:48:09.253Z,24.47
2018-07-02T16:50:35.250Z,24.48
2018-07-02T16:53:01.238Z,24.52
2018-07-02T16:55:27.226Z,24.48
2018-07-02T16:57:53.248Z,24.50
2018-07-02T17:00:19.244Z,24.90
2018-07-02T17:02:45.236Z,24.91
2018-07-02T17:05:11.244Z,24.59
2018-07-02T17:07:37.255Z,24.62
2018-07-02T17:10:03.271Z,24.69
2018-07-02T17:12:29.251Z,24.69
2018-07-02T17:14:55.221Z,24.69
2018-07-02T17:17:21.216Z,24.61
2018-07-02T17:19:47.288Z,24.60
2018-07-02T17:22:13.388Z,24.54
2018-07-02T17:24:39.398Z,24.53
2018-07-02T17:27:05.360Z,24.61
2018-07-02T17:29:31.392Z,24.58
2018-07-02T17:31:57.364Z,24.51
2018-07-02T17:34:23.342Z,24.59
2018-07-02T17:36:49.320Z,24.59
2018-07-02T17:39:15.375Z,24.54
2018-07-02T17:41:41.370Z,24.60
2018-07-02T17:44:07.404Z,24.62
2018-07-02T17:46:33.394Z,24.61
2018-07-02T17:48:59.363Z,24.66
2018-07-02T17:51:25.346Z,24.84
2018-07-02T17:53:51.331Z,24.70
2018-07-02T17:56:17.300Z,24.79
2018-07-02T17:58:43.283Z,24.69
2018-07-02T18:01:09.322Z,24.59
2018-07-02T18:03:35.253Z,24.67
2018-07-02T18:06:01.338Z,24.59
2018-07-02T18:08:27.351Z,24.62
2018-07-02T18:10:53.327Z,24.65
2018-07-02T18:13:19.384Z,24.66
2018-07-02T18:15:45.429Z,24.65
2018-07-02T18:18:11.399Z,24.68
2018-07-02T18:20:37.444Z,24.69
2018-07-02T18:23:03.399Z,24.75
2018-07-02T18:25:29.412Z,24.73
2018-07-02T18:27:55.572Z,24.65
2018-07-02T18:30:21.536Z,24.68
2018-07-02T18:32:47.524Z,24.64
2018-07-02T18:35:13.577Z,24.58
2018-07-02T18:37:39.570Z,24.55
2018-07-02T18:40:05.539Z,24.62
2018-07-02T18:42:31.528Z,24.71
2018-07-02T18:44:57.526Z,24.71
2018-07-02T18:47:23.532Z,24.72
2018-07-02T18:49:49.780Z,24.59
2018-07-02T18:52:15.770Z,24.66
2018-07-02T18:54:41.912Z,24.64
2018-07-02T18:57:07.919Z,24.64
2018-07-02T18:59:33.903Z,24.61
2018-07-02T19:01:59.896Z,24.58
2018-07-02T19:04:25.861Z,24.56
2018-07-02T19:06:52.775Z,24.60
2018-07-02T19:09:18.829Z,24.59
2018-07-02T19:11:44.827Z,24.56
2018-07-02T19:14:10.860Z,24.55
2018-07-02T19:16:36.937Z,24.60
2018-07-02T19:19:02.992Z,24.56
2018-07-02T19:21:28.999Z,24.58
2018-07-02T19:23:55.014Z,24.51
2018-07-02T19:26:21.000Z,24.56
2018-07-02T19:28:46.960Z,24.48
2018-07-02T19:31:13.014Z,24.41
2018-07-02T19:33:39.012Z,24.45
2018-07-02T19:36:05.059Z,24.48
2018-07-02T19:38:31.143Z,24.42
2018-07-02T19:40:57.241Z,24.47
2018-07-02T19:43:23.375Z,24.50
2018-07-02T19:45:49.408Z,24.41
2018-07-02T19:48:16.035Z,24.50
2018-07-02T19:50:42.121Z,24.42
2018-07-02T19:53:08.145Z,24.43
2018-07-02T19:55:34.140Z,24.49
2018-07-02T19:58:00.117Z,24.41
2018-07-02T20:00:26.224Z,24.43
2018-07-02T20:02:52.322Z,24.46
2018-07-02T20:05:18.297Z,24.35
2018-07-02T20:07:44.309Z,24.38
2018-07-02T20:10:10.330Z,24.46
2018-07-02T20:12:36.368Z,24.41
2018-07-02T20:15:02.370Z,24.43
2018-07-02T20:17:28.339Z,24.46
2018-07-02T20:19:54.445Z,24.42
2018-07-02T20:22:20.461Z,24.44
2018-07-02T20:24:46.442Z,24.41
2018-07-02T20:27:12.489Z,24.44
2018-07-02T20:29:38.507Z,24.38
2018-07-02T20:32:04.481Z,24.33
2018-07-02T20:34:30.479Z,24.40
2018-07-02T20:36:56.786Z,24.43
2018-07-02T20:39:22.779Z,24.32
2018-07-02T20:41:48.840Z,24.39
2018-07-02T20:44:14.844Z,24.42
2018-07-02T20:46:40.838Z,24.47
2018-07-02T20:49:06.866Z,24.43
2018-07-02T20:51:32.937Z,24.50
2018-07-02T20:53:58.995Z,24.56
2018-07-02T20:56:24.970Z,24.41
2018-07-02T20:58:50.950Z,24.34
2018-07-02T21:01:16.957Z,24.37
2018-07-02T21:03:42.961Z,24.35
2018-07-02T21:06:08.937Z,24.44
2018-07-02T21:08:34.920Z,24.33
2018-07-02T21:11:00.970Z,24.33
2018-07-02T21:13:27.327Z,24.34
2018-07-02T21:15:53.393Z,24.37
2018-07-02T21:18:19.588Z,24.39
2018-07-02T21:20:45.600Z,24.41
2018-07-02T21:23:11.591Z,24.51
2018-07-02T21:25:37.588Z,24.51
2018-07-02T21:28:03.574Z,24.42
2018-07-02T21:30:29.565Z,24.36
2018-07-02T21:32:55.571Z,24.26
2018-07-02T21:35:21.551Z,24.30
2018-07-02T21:37:47.531Z,24.28
2018-07-02T21:40:13.508Z,24.23
2018-07-02T21:42:39.500Z,24.16
2018-07-02T21:45:05.462Z,24.15
2018-07-02T21:47:31.492Z,24.20
2018-07-02T21:49:57.511Z,24.18
2018-07-02T21:52:23.512Z,24.04
2018-07-02T21:54:49.511Z,24.06
2018-07-02T21:57:15.538Z,24.11
2018-07-02T21:59:41.770Z,24.23
2018-07-02T22:02:07.781Z,24.24
2018-07-02T22:04:33.745Z,24.39
2018-07-02T22:06:59.727Z,24.50
2018-07-02T22:09:25.684Z,24.54
2018-07-02T22:11:51.680Z,24.50
2018-07-02T22:14:17.749Z,24.59
2018-07-02T22:16:43.983Z,24.37
2018-07-02T22:19:09.943Z,24.22
2018-07-02T22:21:35.905Z,24.21
2018-07-02T22:24:02.178Z,24.18
2018-07-02T22:26:28.188Z,24.23
2018-07-02T22:28:54.153Z,24.13
2018-07-02T22:31:20.137Z,24.16
2018-07-02T22:33:46.133Z,24.15
2018-07-02T22:36:12.342Z,24.17
2018-07-02T22:38:38.321Z,24.18
2018-07-02T22:41:04.324Z,24.24
2018-07-02T22:43:30.545Z,24.11
2018-07-02T22:45:56.449Z,24.20
2018-07-02T22:48:22.672Z,24.20
2018-07-02T22:50:48.681Z,24.15
2018-07-02T22:53:14.705Z,24.27
2018-07-02T22:55:40.693Z,24.24
2018-07-02T22:58:06.668Z,24.18
2018-07-02T23:00:32.635Z,24.04
2018-07-02T23:02:58.606Z,24.05
2018-07-02T23:05:24.595Z,24.03
2018-07-02T23:07:50.568Z,24.01
2018-07-02T23:10:16.567Z,24.02
2018-07-02T23:12:42.539Z,24.00
2018-07-02T23:15:08.496Z,24.04
2018-07-02T23:17:34.501Z,24.04
2018-07-02T23:20:00.517Z,24.15
2018-07-02T23:22:26.520Z,24.11
2018-07-02T23:24:52.535Z,24.11
2018-07-02T23:27:18.535Z,24.15
2018-07-02T23:29:44.539Z,24.15
2018-07-02T23:32:10.511Z,24.11
2018-07-02T23:34:36.503Z,24.08
2018-07-02T23:37:02.756Z,24.10
2018-07-02T23:39:28.749Z,24.02
2018-07-02T23:41:54.732Z,24.00
2018-07-02T23:44:20.734Z,24.02
2018-07-02T23:46:46.705Z,23.99
2018-07-02T23:49:12.684Z,23.97
2018-07-02T23:51:38.683Z,24.02
2018-07-02T23:54:04.690Z,24.03
2018-07-02T23:56:30.679Z,24.14
2018-07-02T23:58:56.655Z,24.13
